createdAt,value
2022-08-21T00:00:10.980Z,20.60
2022-08-21T00:04:12.671Z,20.50
2022-08-21T00:08:17.051Z,20.40
2022-08-21T00:12:18.349Z,20.20
2022-08-21T00:16:19.584Z,20.00
2022-08-21T00:20:22.053Z,20.00
2022-08-21T00:24:24.176Z,19.80
2022-08-21T00:28:25.490Z,19.90
2022-08-21T00:32:28.096Z,19.90
2022-08-21T00:36:29.930Z,19.90
2022-08-21T00:40:34.843Z,19.70
2022-08-21T00:44:36.165Z,19.60
2022-08-21T00:48:37.275Z,19.60
2022-08-21T00:52:40.793Z,19.40
2022-08-21T00:56:42.108Z,19.30
2022-08-21T01:00:48.518Z,19.40
2022-08-21T01:04:49.906Z,19.40
2022-08-21T01:08:51.124Z,19.40
2022-08-21T01:12:56.516Z,19.40
2022-08-21T01:16:59.373Z,19.40
2022-08-21T01:21:09.796Z,19.30
2022-08-21T01:25:15.532Z,19.20
2022-08-21T01:29:37.462Z,19.20
2022-08-21T01:33:38.791Z,19.00
2022-08-21T01:37:40.275Z,18.90
2022-08-21T01:41:41.603Z,18.80
2022-08-21T01:45:43.014Z,18.70
2022-08-21T01:49:45.133Z,18.80
2022-08-21T01:53:46.329Z,18.80
2022-08-21T01:57:48.363Z,18.80
2022-08-21T02:01:50.085Z,18.80
2022-08-21T02:05:51.208Z,18.80
2022-08-21T02:09:52.326Z,18.80
2022-08-21T02:13:55.035Z,18.70
2022-08-21T02:17:59.193Z,18.60
2022-08-21T02:22:00.484Z,18.70
2022-08-21T02:26:04.498Z,18.80
2022-08-21T02:30:07.156Z,18.70
2022-08-21T02:34:09.037Z,18.70
2022-08-21T02:38:13.530Z,18.60
2022-08-21T02:42:14.944Z,18.50
2022-08-21T02:46:18.672Z,18.40
2022-08-21T02:50:26.640Z,18.30
2022-08-21T02:54:28.461Z,18.30
2022-08-21T02:58:33.481Z,18.20
2022-08-21T03:02:35.204Z,18.20
2022-08-21T03:06:36.942Z,18.10
2022-08-21T03:10:40.178Z,18.00
2022-08-21T03:14:41.478Z,18.00
2022-08-21T03:18:42.708Z,17.90
2022-08-21T03:22:48.548Z,17.80
2022-08-21T03:26:46.845Z,17.80
2022-08-21T03:30:50.935Z,17.80
2022-08-21T03:34:52.081Z,17.80
2022-08-21T03:38:53.402Z,17.70
2022-08-21T03:42:54.654Z,17.70
2022-08-21T03:46:56.921Z,17.70
2022-08-21T03:50:58.550Z,17.70
2022-08-21T03:54:59.781Z,17.60
2022-08-21T03:59:02.894Z,17.50
2022-08-21T04:03:04.518Z,17.50
2022-08-21T04:07:05.687Z,17.50
2022-08-21T04:11:07.708Z,17.50
2022-08-21T04:15:09.448Z,17.60
2022-08-21T04:19:11.755Z,17.60
2022-08-21T04:23:12.941Z,17.60
2022-08-21T04:27:15.984Z,17.50
2022-08-21T04:31:17.088Z,17.40
2022-08-21T04:35:21.420Z,17.40
2022-08-21T04:39:22.626Z,17.40
2022-08-21T04:43:25.956Z,17.40
2022-08-21T04:51:17.577Z,17.30
2022-08-21T04:55:20.353Z,17.40
2022-08-21T04:59:25.276Z,17.50
2022-08-21T05:03:26.805Z,17.50
2022-08-21T05:07:42.400Z,17.50
2022-08-21T05:11:33.555Z,17.60
2022-08-21T05:15:34.792Z,17.70
2022-08-21T05:19:36.602Z,17.80
2022-08-21T05:23:37.749Z,17.90
2022-08-21T05:27:39.336Z,18.00
2022-08-21T05:31:40.587Z,18.20
2022-08-21T05:35:41.709Z,18.40
2022-08-21T05:40:05.262Z,18.50
2022-08-21T05:43:46.169Z,18.80
2022-08-21T05:47:47.399Z,19.10
2022-08-21T05:51:48.627Z,19.20
2022-08-21T05:55:51.547Z,19.20
2022-08-21T05:59:52.977Z,19.20
2022-08-21T06:03:54.112Z,19.30
2022-08-21T06:07:57.124Z,19.60
2022-08-21T06:11:58.263Z,19.70
2022-08-21T06:16:06.595Z,19.80
2022-08-21T06:20:08.427Z,19.90
2022-08-21T06:24:09.637Z,20.00
2022-08-21T06:28:11.479Z,20.10
2022-08-21T06:32:13.391Z,20.20
2022-08-21T06:36:17.523Z,20.10
2022-08-21T06:40:18.804Z,20.30
2022-08-21T06:44:20.660Z,20.70
2022-08-21T06:48:21.894Z,21.30
2022-08-21T06:52:23.143Z,21.40
2022-08-21T06:56:24.398Z,21.70
2022-08-21T07:00:26.340Z,21.90
2022-08-21T07:04:27.557Z,22.40
2022-08-21T07:08:29.404Z,22.80
2022-08-21T07:12:31.611Z,22.90
2022-08-21T07:16:32.845Z,23.20
2022-08-21T07:20:34.470Z,23.40
2022-08-21T07:24:35.708Z,23.30
2022-08-21T07:28:36.910Z,23.50
2022-08-21T07:32:38.248Z,23.90
2022-08-21T07:36:39.458Z,24.20
2022-08-21T07:40:41.192Z,24.30
2022-08-21T07:44:42.426Z,24.10
2022-08-21T07:48:43.572Z,24.30
2022-08-21T07:52:45.098Z,24.70
2022-08-21T07:56:46.203Z,24.90
2022-08-21T08:00:47.330Z,25.20
2022-08-21T08:04:51.066Z,25.40
2022-08-21T08:08:51.474Z,25.50
2022-08-21T08:12:54.721Z,25.60
2022-08-21T08:16:55.960Z,25.90
2022-08-21T08:20:57.183Z,26.30
2022-08-21T08:25:00.026Z,26.80
2022-08-21T08:29:01.232Z,27.10
2022-08-21T08:33:02.468Z,27.60
2022-08-21T08:37:05.200Z,28.00
2022-08-21T08:41:19.226Z,28.00
2022-08-21T08:45:24.479Z,27.60
2022-08-21T08:49:52.420Z,27.30
2022-08-21T08:54:03.158Z,26.80
2022-08-21T08:58:04.787Z,26.50
2022-08-21T09:02:06.314Z,27.50
2022-08-21T09:06:29.515Z,28.80
2022-08-21T09:10:37.597Z,28.90
2022-08-21T09:14:45.311Z,29.00
2022-08-21T09:18:56.044Z,28.90
2022-08-21T09:23:04.464Z,28.80
2022-08-21T09:27:12.671Z,28.30
2022-08-21T09:31:36.622Z,28.60
2022-08-21T09:35:50.900Z,29.30
2022-08-21T09:39:52.199Z,29.90
2022-08-21T09:43:54.502Z,30.60
2022-08-21T09:47:55.837Z,30.80
2022-08-21T09:51:59.263Z,30.80
2022-08-21T09:56:22.079Z,31.40
2022-08-21T10:00:30.196Z,31.40
2022-08-21T10:04:34.957Z,30.00
2022-08-21T10:08:38.759Z,30.10
2022-08-21T10:13:00.114Z,30.20
2022-08-21T10:17:16.840Z,29.70
2022-08-21T10:21:33.424Z,29.80
2022-08-21T10:25:50.430Z,29.30
2022-08-21T10:30:05.958Z,30.00
2022-08-21T10:34:29.090Z,29.80
2022-08-21T10:38:55.294Z,30.30
2022-08-21T10:43:21.456Z,29.40
2022-08-21T10:47:26.400Z,29.50
2022-08-21T10:51:37.737Z,30.30
2022-08-21T10:55:49.048Z,31.20
2022-08-21T10:59:56.626Z,31.40
2022-08-21T11:04:24.368Z,31.40
2022-08-21T11:08:34.170Z,31.10
2022-08-21T11:12:47.732Z,31.20
2022-08-21T11:16:57.073Z,31.60
2022-08-21T11:21:23.454Z,32.40
2022-08-21T11:25:33.755Z,32.20
2022-08-21T11:29:40.458Z,32.00
2022-08-21T11:34:07.009Z,32.60
2022-08-21T11:38:35.098Z,32.80
2022-08-21T11:42:59.135Z,32.90
2022-08-21T11:47:24.929Z,33.60
2022-08-21T11:51:29.988Z,33.00
2022-08-21T11:55:41.329Z,31.40
2022-08-21T11:59:49.634Z,32.00
2022-08-21T12:04:00.529Z,32.00
2022-08-21T12:08:11.031Z,32.20
2022-08-21T12:12:24.959Z,32.20
2022-08-21T12:16:34.918Z,32.50
2022-08-21T12:20:50.454Z,32.70
2022-08-21T12:24:50.041Z,32.20
2022-08-21T12:28:51.865Z,31.30
2022-08-21T12:32:59.966Z,31.80
2022-08-21T12:37:05.513Z,32.20
2022-08-21T12:41:16.146Z,32.70
2022-08-21T12:45:23.101Z,32.00
2022-08-21T12:49:32.012Z,31.40
2022-08-21T12:53:54.323Z,32.30
2022-08-21T12:57:55.748Z,32.90
2022-08-21T13:02:00.216Z,33.10
2022-08-21T13:06:04.199Z,33.00
2022-08-21T13:10:15.098Z,33.30
2022-08-21T13:14:31.989Z,33.70
2022-08-21T13:18:35.418Z,33.80
2022-08-21T13:22:44.312Z,33.80
2022-08-21T13:26:46.931Z,33.50
2022-08-21T13:30:51.263Z,33.60
2022-08-21T13:34:54.118Z,33.40
2022-08-21T13:38:55.534Z,33.30
2022-08-21T13:42:57.494Z,33.60
2022-08-21T13:47:02.387Z,33.10
2022-08-21T13:51:04.639Z,33.60
2022-08-21T13:55:12.906Z,33.80
2022-08-21T13:59:26.106Z,33.20
2022-08-21T14:03:45.787Z,33.70
2022-08-21T14:07:49.395Z,33.10
2022-08-21T14:11:50.723Z,33.10
2022-08-21T14:15:58.655Z,33.10
2022-08-21T14:20:00.829Z,32.70
2022-08-21T14:24:05.122Z,32.80
2022-08-21T14:28:27.121Z,32.60
2022-08-21T14:32:31.551Z,32.20
2022-08-21T14:36:34.077Z,32.10
2022-08-21T14:40:35.341Z,32.00
2022-08-21T14:44:36.764Z,31.90
2022-08-21T14:48:37.989Z,31.90
2022-08-21T14:52:40.730Z,31.60
2022-08-21T14:56:41.945Z,30.70
2022-08-21T15:00:43.080Z,30.80
2022-08-21T15:04:44.275Z,30.10
2022-08-21T15:08:45.516Z,30.40
2022-08-21T15:12:46.724Z,31.00
2022-08-21T15:16:49.260Z,30.70
2022-08-21T15:20:50.981Z,31.00
2022-08-21T15:24:52.183Z,30.80
2022-08-21T15:28:53.524Z,30.10
2022-08-21T15:32:54.809Z,29.90
2022-08-21T15:36:57.999Z,29.90
2022-08-21T15:40:59.206Z,29.90
2022-08-21T15:45:01.350Z,30.60
2022-08-21T15:49:02.919Z,30.50
2022-08-21T15:53:04.104Z,30.50
2022-08-21T15:57:05.530Z,30.60
2022-08-21T16:01:06.844Z,30.40
2022-08-21T16:05:10.522Z,30.50
2022-08-21T16:09:13.342Z,30.40
2022-08-21T16:13:18.749Z,30.00
2022-08-21T16:17:23.059Z,30.30
2022-08-21T16:21:24.287Z,30.00
2022-08-21T16:25:25.951Z,30.50
2022-08-21T16:29:32.436Z,30.70
2022-08-21T16:33:39.354Z,30.70
2022-08-21T16:37:42.929Z,30.50
2022-08-21T16:41:44.689Z,30.60
2022-08-21T16:45:45.998Z,30.60
2022-08-21T16:49:48.059Z,30.60
2022-08-21T16:53:49.513Z,30.50
2022-08-21T16:57:50.862Z,30.40
2022-08-21T17:01:53.998Z,30.30
2022-08-21T17:05:55.129Z,30.10
2022-08-21T17:09:56.354Z,30.10
2022-08-21T17:14:00.271Z,30.10
2022-08-21T17:18:05.046Z,29.90
2022-08-21T17:22:06.955Z,29.70
2022-08-21T17:26:08.405Z,29.60
2022-08-21T17:30:13.039Z,29.50
2022-08-21T17:34:14.969Z,29.50
2022-08-21T17:38:16.143Z,29.40
2022-08-21T17:42:17.978Z,29.30
2022-08-21T17:46:25.706Z,29.30
2022-08-21T17:50:27.134Z,29.10
2022-08-21T17:54:28.477Z,29.00
2022-08-21T17:58:30.894Z,28.90
2022-08-21T18:02:33.133Z,28.70
2022-08-21T18:06:34.442Z,28.50
2022-08-21T18:10:37.871Z,28.30
2022-08-21T18:14:40.187Z,28.10
2022-08-21T18:18:42.829Z,27.80
2022-08-21T18:22:45.148Z,27.70
2022-08-21T18:26:46.803Z,27.50
2022-08-21T18:30:48.450Z,27.20
2022-08-21T18:34:50.475Z,27.00
2022-08-21T18:38:52.097Z,26.70
2022-08-21T18:42:58.598Z,26.60
2022-08-21T18:46:59.366Z,26.50
2022-08-21T18:51:02.466Z,26.40
2022-08-21T18:59:09.616Z,26.30
2022-08-21T19:03:14.667Z,26.00
2022-08-21T19:07:19.193Z,25.90
2022-08-21T19:11:23.232Z,25.70
2022-08-21T19:15:24.060Z,25.60
2022-08-21T19:19:25.317Z,25.50
2022-08-21T19:23:29.015Z,25.40
2022-08-21T19:27:30.996Z,25.30
2022-08-21T19:31:41.267Z,25.30
2022-08-21T19:35:43.303Z,25.50
2022-08-21T19:39:49.986Z,25.60
2022-08-21T19:43:53.377Z,25.60
2022-08-21T19:47:54.613Z,25.80
2022-08-21T19:51:55.744Z,25.60
2022-08-21T19:55:57.209Z,25.50
2022-08-21T19:59:58.655Z,25.20
2022-08-21T20:03:59.884Z,25.00
2022-08-21T20:08:01.691Z,24.90
2022-08-21T20:12:10.049Z,24.70
2022-08-21T20:16:13.196Z,24.90
2022-08-21T20:20:14.383Z,25.00
2022-08-21T20:24:16.079Z,25.20
2022-08-21T20:28:17.317Z,25.30
2022-08-21T20:32:18.948Z,25.10
2022-08-21T20:36:21.774Z,25.00
2022-08-21T20:40:23.366Z,24.90
2022-08-21T20:44:30.130Z,24.80
2022-08-21T20:48:49.076Z,24.90
2022-08-21T20:52:41.022Z,24.80
2022-08-21T20:56:51.692Z,24.70
2022-08-21T21:00:57.810Z,24.60
2022-08-21T21:05:17.706Z,24.70
2022-08-21T21:09:29.156Z,24.80
2022-08-21T21:13:45.371Z,24.60
2022-08-21T21:17:52.943Z,24.60
2022-08-21T21:21:58.368Z,24.60
2022-08-21T21:26:03.300Z,24.60
2022-08-21T21:30:12.364Z,24.30
2022-08-21T21:34:17.162Z,24.20
2022-08-21T21:38:27.659Z,23.80
2022-08-21T21:43:03.382Z,23.60
2022-08-21T21:47:08.450Z,23.50
2022-08-21T21:51:35.346Z,23.40
2022-08-21T21:56:07.435Z,23.30
2022-08-21T22:00:14.466Z,23.20
2022-08-21T22:04:22.520Z,23.10
2022-08-21T22:08:40.831Z,23.00
2022-08-21T22:17:29.233Z,23.00
2022-08-21T22:21:37.464Z,22.90
2022-08-21T22:25:42.634Z,22.80
2022-08-21T22:29:47.914Z,22.60
2022-08-21T22:34:06.167Z,22.40
2022-08-21T22:38:21.257Z,22.30
2022-08-21T22:42:26.849Z,22.20
2022-08-21T22:46:43.893Z,22.20
2022-08-21T22:50:45.917Z,22.10
2022-08-21T22:54:53.199Z,22.10
2022-08-21T22:58:55.602Z,21.90
2022-08-21T23:02:58.557Z,21.90
2022-08-21T23:07:02.559Z,21.90
2022-08-21T23:11:09.392Z,21.90
2022-08-21T23:15:13.019Z,22.20
2022-08-21T23:19:39.515Z,22.20
2022-08-21T23:23:44.560Z,22.20
2022-08-21T23:32:14.976Z,22.10
2022-08-21T23:36:38.994Z,22.00
2022-08-21T23:40:51.054Z,22.00
2022-08-21T23:44:59.502Z,22.10
2022-08-21T23:49:24.752Z,22.00
2022-08-21T23:53:35.452Z,22.00
2022-08-21T23:58:08.130Z,22.00
